DEC - Decatur

Pirep is a free, collaborative database of all public and private airports located within the United States. All pilots are welcome to contribute, edit, and improve any airport they have local knowledge about, no registration required.
Uploaded photos will be licensed under a CC BY-SA 4.0 license. Please only upload photos you have the rights to use.
Tags
Public
METAR / TAF
Flying Clubs
Edit Tags
Food
Camping
Lodging
Car Rental
Bicycles
Swimming
Golfing
Fishing
Hot Springs
Museum
Airpark
Upcoming Events
No upcoming events. Is anything happening here soon?
*
*
*

Where exactly on/near the airport is this event taking place?

Is there a webpage with more information for this event?

Who should be contacted for more information?

What is this event all about?

Repeat every
Description
Transient Parking
Fuel Location
Landing & Tie-down Fees
Crew Car Availability
Flying Clubs
Last updated: 2024-02-05 22:18:24 CST
WiFi Access
Airport Statistics
Location: Decatur, IL
Elevation: 681ft
Sectional: St Louis
Activation date: Mar 1945
Fuel: 100LL, A (prices)
Runway 06/24: 8,496ft
Runway 12/30: 6,799ft
Runway 18/36: 5,298ft
Access: Open to the public
Current Weather — VFR
  • Weather data is strictly informational and not for flight planning purposes.
  • METAR
    2024-05-29 11:54:00 CDT
    Ceiling Wind Temperature Dewpoint Weather Visbility
    4,600ft 360° @ 7kt 69°F 53°F N/A 10SM
    Clouds: Broken @ 4,600ft
    Raw: KDEC 291654Z 36007KT 10SM BKN046 21/12 A3020 RMK AO2 SLP226 T02060122
  • TAF
    2024-05-29 13:00:00 CDT – 2024-05-29 20:00:00 CDT
    Ceiling Wind Weather Visbility
    5,000ft 20° @ 10kt N/A 6SM
    Clouds: Broken @ 5,000ft
    Raw: KDEC 291720Z 2918/3018 02010KT P6SM BKN050 FM300100 VRB05KT P6SM SKC
  • TAF
    2024-05-29 20:00:00 CDT – 2024-05-30 13:00:00 CDT
    Ceiling Wind Weather Visbility
    Sky clear Variable N/A 6SM
    Clouds: @ ft
    Raw: KDEC 291720Z 2918/3018 02010KT P6SM BKN050 FM300100 VRB05KT P6SM SKC
Click/tap to add an annotation marker to the map
Airport Webcams
No webcams added yet.
Direct links to live image URLs will be displayed inline on this page. URLs to separate webpages will be linked to.
URL:
Direct links to live image URLs will be displayed inline on this page. URLs to separate webpages will be linked to.
URL:
Remarks
  • Index b arff capability rqr 24 hr ppr - ctc amgr.
  • N ramp from hngr b to hngr g clsd to acft ovr 12500 lbs.
  • When atct clsd be alert for vehicular tfc in arpt ops areas.
  • Birds & wildlife on & invof arpt.
  • Glider ops rwy 06 & 30 only, rqr written apvl - ctc amgr. sod ops na.
Comments
Leave a comment What was your experience like at this airport?